Check out our new PWSWeather beta!
PWSweather.com
Personal Weather Stations
Station Observations
METEOC500
Santo Antonio, FunchalPT 2020

Santo AntonioFunchalPT 2020

Lat: 32.678227, Lon: -16.945054

Elevation: 1669.94751

Station Type: WH Series

High Low Average
Temperature 75.2°F24.0°C 64.2°F17.9°C 70.7°F21.5°C
Dew Point 68.9°F20.5°C 54.1°F12.3°C 61.6°F16.4°C
Winds 6.3 mph 10.1 kmh Calm Calm 2.0 mph WSW3.2 kmh WSW
Wind Gusts 12.5 mph20.1 kmh -- 7.0 mph11.3 kmh
Humidity 94% 57% 74%
Pressure 30.44 in1030.8 mb 30.34 in1027.4 mb -
Precipitation 0.00 in0.0 mm - -
Hour Temp Dew Point Humidity Winds Wind Gusts Pressure Precip Precip Rate Daily Precip Total
12:08 AM 68.0°F20.0°C 59.0°F15.0°C 73% 2.9 mph NW4.7 kmh NW 4.9 mph7.9 kmh 30.44 in1030.8 mb 0.00 in0.0 mm 0.00 in0.0 mm 0.00 in0.0 mm
12:23 AM 68.2°F20.1°C 58.8°F14.9°C 72% 2.2 mph NNW3.5 kmh NNW 7.6 mph12.2 kmh 30.43 in1030.5 mb 0.00 in0.0 mm 0.00 in0.0 mm 0.00 in0.0 mm
12:38 AM 68.0°F20.0°C 62.2°F16.8°C 82% Calm Calm 4.9 mph7.9 kmh 30.43 in1030.5 mb 0.00 in0.0 mm 0.00 in0.0 mm 0.00 in0.0 mm
12:53 AM 66.9°F19.4°C 61.5°F16.4°C 83% Calm Calm 2.5 mph4.0 kmh 30.43 in1030.5 mb 0.00 in0.0 mm 0.00 in0.0 mm 0.00 in0.0 mm
01:08 AM 66.0°F18.9°C 61.7°F16.5°C 86% 2.2 mph NW3.5 kmh NW 4.9 mph7.9 kmh 30.42 in1030.1 mb 0.00 in0.0 mm 0.00 in0.0 mm 0.00 in0.0 mm
01:23 AM 65.3°F18.5°C 58.6°F14.8°C 79% Calm Calm 4.9 mph7.9 kmh 30.42 in1030.1 mb 0.00 in0.0 mm 0.00 in0.0 mm 0.00 in0.0 mm
01:38 AM 66.0°F18.9°C 57.6°F14.2°C 74% Calm Calm 7.6 mph12.2 kmh 30.42 in1030.1 mb 0.00 in0.0 mm 0.00 in0.0 mm 0.00 in0.0 mm
01:53 AM 67.3°F19.6°C 62.2°F16.8°C 84% Calm Calm 2.5 mph4.0 kmh 30.42 in1030.1 mb 0.00 in0.0 mm 0.00 in0.0 mm 0.00 in0.0 mm
02:08 AM 66.7°F19.3°C 60.8°F16.0°C 81% Calm Calm 4.9 mph7.9 kmh 30.42 in1030.1 mb 0.00 in0.0 mm 0.00 in0.0 mm 0.00 in0.0 mm
02:23 AM 66.2°F19.0°C 59.9°F15.5°C 80% Calm Calm 4.9 mph7.9 kmh 30.42 in1030.1 mb 0.00 in0.0 mm 0.00 in0.0 mm 0.00 in0.0 mm
02:38 AM 66.6°F19.2°C 59.9°F15.5°C 79% Calm Calm 2.5 mph4.0 kmh 30.41 in1029.8 mb 0.00 in0.0 mm 0.00 in0.0 mm 0.00 in0.0 mm
02:54 AM 66.9°F19.4°C 56.5°F13.6°C 69% 5.6 mph NW9.0 kmh NW 7.6 mph12.2 kmh 30.40 in1029.5 mb 0.00 in0.0 mm 0.00 in0.0 mm 0.00 in0.0 mm
03:09 AM 68.2°F20.1°C 58.1°F14.5°C 70% 0.7 mph WNW1.1 kmh WNW 7.6 mph12.2 kmh 30.40 in1029.5 mb 0.00 in0.0 mm 0.00 in0.0 mm 0.00 in0.0 mm
03:24 AM 68.7°F20.4°C 59.0°F15.0°C 71% 0.7 mph WNW1.1 kmh WNW 4.9 mph7.9 kmh 30.40 in1029.5 mb 0.00 in0.0 mm 0.00 in0.0 mm 0.00 in0.0 mm
03:39 AM 67.8°F19.9°C 60.3°F15.7°C 77% Calm Calm 4.9 mph7.9 kmh 30.40 in1029.5 mb 0.00 in0.0 mm 0.00 in0.0 mm 0.00 in0.0 mm
03:54 AM 67.1°F19.5°C 61.2°F16.2°C 81% Calm Calm 4.9 mph7.9 kmh 30.40 in1029.5 mb 0.00 in0.0 mm 0.00 in0.0 mm 0.00 in0.0 mm
04:09 AM 66.2°F19.0°C 57.2°F14.0°C 73% 1.8 mph NW2.9 kmh NW 10.1 mph16.3 kmh 30.39 in1029.1 mb 0.00 in0.0 mm 0.00 in0.0 mm 0.00 in0.0 mm
04:24 AM 66.2°F19.0°C 55.8°F13.2°C 69% 2.9 mph NNW4.7 kmh NNW 4.9 mph7.9 kmh 30.39 in1029.1 mb 0.00 in0.0 mm 0.00 in0.0 mm 0.00 in0.0 mm
04:39 AM 67.8°F19.9°C 56.1°F13.4°C 66% 3.1 mph NW5.0 kmh NW 10.1 mph16.3 kmh 30.39 in1029.1 mb 0.00 in0.0 mm 0.00 in0.0 mm 0.00 in0.0 mm
04:54 AM 69.1°F20.6°C 55.9°F13.3°C 63% 1.6 mph NW2.6 kmh NW 7.6 mph12.2 kmh 30.39 in1029.1 mb 0.00 in0.0 mm 0.00 in0.0 mm 0.00 in0.0 mm
05:09 AM 69.4°F20.8°C 57.2°F14.0°C 65% 4.5 mph N7.2 kmh N 7.6 mph12.2 kmh 30.39 in1029.1 mb 0.00 in0.0 mm 0.00 in0.0 mm 0.00 in0.0 mm
05:24 AM 70.0°F21.1°C 55.4°F13.0°C 60% 6.3 mph N10.1 kmh N 10.1 mph16.3 kmh 30.39 in1029.1 mb 0.00 in0.0 mm 0.00 in0.0 mm 0.00 in0.0 mm
05:39 AM 70.5°F21.4°C 55.9°F13.3°C 60% 2.5 mph NW4.0 kmh NW 7.6 mph12.2 kmh 30.38 in1028.8 mb 0.00 in0.0 mm 0.00 in0.0 mm 0.00 in0.0 mm
05:54 AM 70.2°F21.2°C 55.2°F12.9°C 59% 6.3 mph NNW10.1 kmh NNW 10.1 mph16.3 kmh 30.38 in1028.8 mb 0.00 in0.0 mm 0.00 in0.0 mm 0.00 in0.0 mm
06:09 AM 70.0°F21.1°C 55.0°F12.8°C 59% 6.3 mph NNW10.1 kmh NNW 10.1 mph16.3 kmh 30.39 in1029.1 mb 0.00 in0.0 mm 0.00 in0.0 mm 0.00 in0.0 mm
06:24 AM 70.2°F21.2°C 54.1°F12.3°C 57% 2.9 mph NNW4.7 kmh NNW 7.6 mph12.2 kmh 30.40 in1029.5 mb 0.00 in0.0 mm 0.00 in0.0 mm 0.00 in0.0 mm
06:39 AM 69.8°F21.0°C 55.2°F12.9°C 60% 5.6 mph N9.0 kmh N 7.6 mph12.2 kmh 30.40 in1029.5 mb 0.00 in0.0 mm 0.00 in0.0 mm 0.00 in0.0 mm
06:54 AM 69.6°F20.9°C 55.6°F13.1°C 61% 5.4 mph N8.7 kmh N 10.1 mph16.3 kmh 30.40 in1029.5 mb 0.00 in0.0 mm 0.00 in0.0 mm 0.00 in0.0 mm
07:09 AM 68.5°F20.3°C 56.7°F13.7°C 66% 4.5 mph N7.2 kmh N 7.6 mph12.2 kmh 30.40 in1029.5 mb 0.00 in0.0 mm 0.00 in0.0 mm 0.00 in0.0 mm
07:24 AM 67.1°F19.5°C 55.8°F13.2°C 67% Calm Calm 4.9 mph7.9 kmh 30.40 in1029.5 mb 0.00 in0.0 mm 0.00 in0.0 mm 0.00 in0.0 mm
07:39 AM 66.9°F19.4°C 54.3°F12.4°C 64% Calm Calm 2.5 mph4.0 kmh 30.40 in1029.5 mb 0.00 in0.0 mm 0.00 in0.0 mm 0.00 in0.0 mm
07:54 AM 67.6°F19.8°C 54.7°F12.6°C 63% Calm Calm 4.9 mph7.9 kmh 30.40 in1029.5 mb 0.00 in0.0 mm 0.00 in0.0 mm 0.00 in0.0 mm
08:09 AM 68.5°F20.3°C 55.4°F13.0°C 63% Calm Calm 4.9 mph7.9 kmh 30.40 in1029.5 mb 0.00 in0.0 mm 0.00 in0.0 mm 0.00 in0.0 mm
08:24 AM 69.8°F21.0°C 55.2°F12.9°C 60% 2.2 mph NNW3.5 kmh NNW 10.1 mph16.3 kmh 30.40 in1029.5 mb 0.00 in0.0 mm 0.00 in0.0 mm 0.00 in0.0 mm
08:39 AM 70.9°F21.6°C 55.4°F13.0°C 58% 4.0 mph N6.4 kmh N 10.1 mph16.3 kmh 30.40 in1029.5 mb 0.00 in0.0 mm 0.00 in0.0 mm 0.00 in0.0 mm
08:54 AM 71.6°F22.0°C 56.5°F13.6°C 59% 4.9 mph NW7.9 kmh NW 7.6 mph12.2 kmh 30.40 in1029.5 mb 0.00 in0.0 mm 0.00 in0.0 mm 0.00 in0.0 mm
09:09 AM 73.0°F22.8°C 56.8°F13.8°C 57% 4.5 mph N7.2 kmh N 10.1 mph16.3 kmh 30.41 in1029.8 mb 0.00 in0.0 mm 0.00 in0.0 mm 0.00 in0.0 mm
09:24 AM 74.5°F23.6°C 64.9°F18.3°C 72% 4.5 mph SSE7.2 kmh SSE 7.6 mph12.2 kmh 30.42 in1030.1 mb 0.00 in0.0 mm 0.00 in0.0 mm 0.00 in0.0 mm
09:39 AM 74.3°F23.5°C 63.9°F17.7°C 70% Calm Calm 4.9 mph7.9 kmh 30.41 in1029.8 mb 0.00 in0.0 mm 0.00 in0.0 mm 0.00 in0.0 mm
09:54 AM 74.5°F23.6°C 65.3°F18.5°C 73% Calm Calm 7.6 mph12.2 kmh 30.42 in1030.1 mb 0.00 in0.0 mm 0.00 in0.0 mm 0.00 in0.0 mm
10:09 AM 74.7°F23.7°C 67.3°F19.6°C 78% 3.8 mph SE6.1 kmh SE 7.6 mph12.2 kmh 30.42 in1030.1 mb 0.00 in0.0 mm 0.00 in0.0 mm 0.00 in0.0 mm
10:24 AM 74.3°F23.5°C 65.5°F18.6°C 74% 0.9 mph SE1.4 kmh SE 7.6 mph12.2 kmh 30.42 in1030.1 mb 0.00 in0.0 mm 0.00 in0.0 mm 0.00 in0.0 mm
10:39 AM 74.7°F23.7°C 66.9°F19.4°C 77% Calm Calm 7.6 mph12.2 kmh 30.42 in1030.1 mb 0.00 in0.0 mm 0.00 in0.0 mm 0.00 in0.0 mm
10:54 AM 75.0°F23.9°C 67.3°F19.6°C 77% 2.9 mph SE4.7 kmh SE 7.6 mph12.2 kmh 30.42 in1030.1 mb 0.00 in0.0 mm 0.00 in0.0 mm 0.00 in0.0 mm
11:09 AM 74.7°F23.7°C 68.4°F20.2°C 81% 4.7 mph SSE7.6 kmh SSE 7.6 mph12.2 kmh 30.42 in1030.1 mb 0.00 in0.0 mm 0.00 in0.0 mm 0.00 in0.0 mm
11:24 AM 73.8°F23.2°C 68.0°F20.0°C 82% 4.5 mph ESE7.2 kmh ESE 10.1 mph16.3 kmh 30.42 in1030.1 mb 0.00 in0.0 mm 0.00 in0.0 mm 0.00 in0.0 mm
11:39 AM 73.2°F22.9°C 66.4°F19.1°C 79% 4.0 mph SSE6.4 kmh SSE 10.1 mph16.3 kmh 30.42 in1030.1 mb 0.00 in0.0 mm 0.00 in0.0 mm 0.00 in0.0 mm
11:54 AM 73.9°F23.3°C 66.6°F19.2°C 78% 3.1 mph SE5.0 kmh SE 7.6 mph12.2 kmh 30.42 in1030.1 mb 0.00 in0.0 mm 0.00 in0.0 mm 0.00 in0.0 mm
12:09 PM 74.1°F23.4°C 67.1°F19.5°C 79% 0.7 mph S1.1 kmh S 7.6 mph12.2 kmh 30.41 in1029.8 mb 0.00 in0.0 mm 0.00 in0.0 mm 0.00 in0.0 mm
12:24 PM 74.1°F23.4°C 67.1°F19.5°C 79% Calm Calm 7.6 mph12.2 kmh 30.40 in1029.5 mb 0.00 in0.0 mm 0.00 in0.0 mm 0.00 in0.0 mm
12:39 PM 74.5°F23.6°C 66.7°F19.3°C 77% 4.0 mph SE6.4 kmh SE 10.1 mph16.3 kmh 30.40 in1029.5 mb 0.00 in0.0 mm 0.00 in0.0 mm 0.00 in0.0 mm
12:54 PM 74.5°F23.6°C 67.8°F19.9°C 80% 1.8 mph SSE2.9 kmh SSE 10.1 mph16.3 kmh 30.39 in1029.1 mb 0.00 in0.0 mm 0.00 in0.0 mm 0.00 in0.0 mm
01:09 PM 74.3°F23.5°C 66.9°F19.4°C 78% 4.0 mph S6.4 kmh S 7.6 mph12.2 kmh 30.39 in1029.1 mb 0.00 in0.0 mm 0.00 in0.0 mm 0.00 in0.0 mm
01:24 PM 74.3°F23.5°C 67.6°F19.8°C 80% 0.2 mph S0.3 kmh S 7.6 mph12.2 kmh 30.38 in1028.8 mb 0.00 in0.0 mm 0.00 in0.0 mm 0.00 in0.0 mm
01:39 PM 74.7°F23.7°C 67.3°F19.6°C 78% 4.5 mph SSW7.2 kmh SSW 10.1 mph16.3 kmh 30.37 in1028.4 mb 0.00 in0.0 mm 0.00 in0.0 mm 0.00 in0.0 mm
01:54 PM 74.8°F23.8°C 67.5°F19.7°C 78% 1.6 mph SSE2.6 kmh SSE 10.1 mph16.3 kmh 30.37 in1028.4 mb 0.00 in0.0 mm 0.00 in0.0 mm 0.00 in0.0 mm
02:09 PM 74.8°F23.8°C 67.1°F19.5°C 77% 3.8 mph SW6.1 kmh SW 7.6 mph12.2 kmh 30.36 in1028.1 mb 0.00 in0.0 mm 0.00 in0.0 mm 0.00 in0.0 mm
02:24 PM 74.7°F23.7°C 67.6°F19.8°C 79% 2.5 mph SSW4.0 kmh SSW 12.5 mph20.1 kmh 30.36 in1028.1 mb 0.00 in0.0 mm 0.00 in0.0 mm 0.00 in0.0 mm
02:39 PM 74.3°F23.5°C 67.6°F19.8°C 80% 3.8 mph S6.1 kmh S 7.6 mph12.2 kmh 30.36 in1028.1 mb 0.00 in0.0 mm 0.00 in0.0 mm 0.00 in0.0 mm
02:54 PM 73.8°F23.2°C 67.6°F19.8°C 81% 2.9 mph S4.7 kmh S 7.6 mph12.2 kmh 30.35 in1027.8 mb 0.00 in0.0 mm 0.00 in0.0 mm 0.00 in0.0 mm
03:09 PM 74.1°F23.4°C 66.4°F19.1°C 77% 2.9 mph SSW4.7 kmh SSW 7.6 mph12.2 kmh 30.34 in1027.4 mb 0.00 in0.0 mm 0.00 in0.0 mm 0.00 in0.0 mm
03:24 PM 74.8°F23.8°C 68.2°F20.1°C 80% 1.8 mph S2.9 kmh S 7.6 mph12.2 kmh 30.34 in1027.4 mb 0.00 in0.0 mm 0.00 in0.0 mm 0.00 in0.0 mm
03:39 PM 75.2°F24.0°C 67.5°F19.7°C 77% 3.8 mph S6.1 kmh S 7.6 mph12.2 kmh 30.34 in1027.4 mb 0.00 in0.0 mm 0.00 in0.0 mm 0.00 in0.0 mm
03:54 PM 74.8°F23.8°C 68.5°F20.3°C 81% 0.9 mph S1.4 kmh S 7.6 mph12.2 kmh 30.35 in1027.8 mb 0.00 in0.0 mm 0.00 in0.0 mm 0.00 in0.0 mm
04:09 PM 74.1°F23.4°C 68.9°F20.5°C 84% 0.9 mph S1.4 kmh S 4.9 mph7.9 kmh 30.34 in1027.4 mb 0.00 in0.0 mm 0.00 in0.0 mm 0.00 in0.0 mm
04:24 PM 73.4°F23.0°C 67.6°F19.8°C 82% 3.4 mph S5.5 kmh S 4.9 mph7.9 kmh 30.34 in1027.4 mb 0.00 in0.0 mm 0.00 in0.0 mm 0.00 in0.0 mm
04:39 PM 72.3°F22.4°C 67.6°F19.8°C 85% 1.3 mph SW2.1 kmh SW 4.9 mph7.9 kmh 30.34 in1027.4 mb 0.00 in0.0 mm 0.00 in0.0 mm 0.00 in0.0 mm
04:54 PM 71.8°F22.1°C 67.1°F19.5°C 85% Calm Calm 2.5 mph4.0 kmh 30.34 in1027.4 mb 0.00 in0.0 mm 0.00 in0.0 mm 0.00 in0.0 mm
05:09 PM 71.6°F22.0°C 67.1°F19.5°C 86% 1.6 mph SSW2.6 kmh SSW 7.6 mph12.2 kmh 30.34 in1027.4 mb 0.00 in0.0 mm 0.00 in0.0 mm 0.00 in0.0 mm
05:24 PM 71.2°F21.8°C 67.5°F19.7°C 88% Calm Calm 2.5 mph4.0 kmh 30.34 in1027.4 mb 0.00 in0.0 mm 0.00 in0.0 mm 0.00 in0.0 mm
05:39 PM 70.9°F21.6°C 67.1°F19.5°C 88% Calm Calm 2.5 mph4.0 kmh 30.35 in1027.8 mb 0.00 in0.0 mm 0.00 in0.0 mm 0.00 in0.0 mm
05:54 PM 70.3°F21.3°C 66.9°F19.4°C 89% Calm Calm 2.5 mph4.0 kmh 30.34 in1027.4 mb 0.00 in0.0 mm 0.00 in0.0 mm 0.00 in0.0 mm
06:09 PM 69.8°F21.0°C 64.0°F17.8°C 82% Calm Calm 4.9 mph7.9 kmh 30.34 in1027.4 mb 0.00 in0.0 mm 0.00 in0.0 mm 0.00 in0.0 mm
06:24 PM 70.3°F21.3°C 60.8°F16.0°C 72% 3.8 mph NW6.1 kmh NW 4.9 mph7.9 kmh 30.35 in1027.8 mb 0.00 in0.0 mm 0.00 in0.0 mm 0.00 in0.0 mm
06:39 PM 71.4°F21.9°C 61.2°F16.2°C 70% 2.2 mph NNW3.5 kmh NNW 7.6 mph12.2 kmh 30.35 in1027.8 mb 0.00 in0.0 mm 0.00 in0.0 mm 0.00 in0.0 mm
06:54 PM 71.8°F22.1°C 61.9°F16.6°C 71% 2.5 mph NNW4.0 kmh NNW 7.6 mph12.2 kmh 30.35 in1027.8 mb 0.00 in0.0 mm 0.00 in0.0 mm 0.00 in0.0 mm
07:09 PM 71.4°F21.9°C 61.5°F16.4°C 71% 3.4 mph NNW5.5 kmh NNW 7.6 mph12.2 kmh 30.36 in1028.1 mb 0.00 in0.0 mm 0.00 in0.0 mm 0.00 in0.0 mm
07:24 PM 71.2°F21.8°C 60.1°F15.6°C 68% 2.5 mph N4.0 kmh N 7.6 mph12.2 kmh 30.36 in1028.1 mb 0.00 in0.0 mm 0.00 in0.0 mm 0.00 in0.0 mm
07:39 PM 70.9°F21.6°C 60.6°F15.9°C 70% 3.8 mph NNW6.1 kmh NNW 7.6 mph12.2 kmh 30.36 in1028.1 mb 0.00 in0.0 mm 0.00 in0.0 mm 0.00 in0.0 mm
07:54 PM 70.5°F21.4°C 58.6°F14.8°C 66% 3.4 mph NNW5.5 kmh NNW 7.6 mph12.2 kmh 30.36 in1028.1 mb 0.00 in0.0 mm 0.00 in0.0 mm 0.00 in0.0 mm
08:09 PM 70.5°F21.4°C 59.4°F15.2°C 68% 1.6 mph NW2.6 kmh NW 4.9 mph7.9 kmh 30.36 in1028.1 mb 0.00 in0.0 mm 0.00 in0.0 mm 0.00 in0.0 mm
08:24 PM 70.5°F21.4°C 57.4°F14.1°C 63% 4.7 mph N7.6 kmh N 7.6 mph12.2 kmh 30.36 in1028.1 mb 0.00 in0.0 mm 0.00 in0.0 mm 0.00 in0.0 mm
08:39 PM 71.1°F21.7°C 56.5°F13.6°C 60% 5.6 mph N9.0 kmh N 7.6 mph12.2 kmh 30.36 in1028.1 mb 0.00 in0.0 mm 0.00 in0.0 mm 0.00 in0.0 mm
08:54 PM 71.4°F21.9°C 63.5°F17.5°C 76% Calm Calm 7.6 mph12.2 kmh 30.36 in1028.1 mb 0.00 in0.0 mm 0.00 in0.0 mm 0.00 in0.0 mm
09:09 PM 70.2°F21.2°C 57.9°F14.4°C 65% 3.1 mph N5.0 kmh N 4.9 mph7.9 kmh 30.36 in1028.1 mb 0.00 in0.0 mm 0.00 in0.0 mm 0.00 in0.0 mm
09:24 PM 70.0°F21.1°C 56.8°F13.8°C 63% 5.6 mph NW9.0 kmh NW 7.6 mph12.2 kmh 30.37 in1028.4 mb 0.00 in0.0 mm 0.00 in0.0 mm 0.00 in0.0 mm
09:39 PM 70.5°F21.4°C 57.7°F14.3°C 64% 3.1 mph N5.0 kmh N 10.1 mph16.3 kmh 30.37 in1028.4 mb 0.00 in0.0 mm 0.00 in0.0 mm 0.00 in0.0 mm
09:54 PM 70.5°F21.4°C 55.9°F13.3°C 60% 3.8 mph NNW6.1 kmh NNW 7.6 mph12.2 kmh 30.36 in1028.1 mb 0.00 in0.0 mm 0.00 in0.0 mm 0.00 in0.0 mm
10:09 PM 70.9°F21.6°C 57.7°F14.3°C 63% 2.9 mph NNW4.7 kmh NNW 7.6 mph12.2 kmh 30.36 in1028.1 mb 0.00 in0.0 mm 0.00 in0.0 mm 0.00 in0.0 mm
10:24 PM 70.3°F21.3°C 58.5°F14.7°C 66% 3.8 mph NNW6.1 kmh NNW 7.6 mph12.2 kmh 30.36 in1028.1 mb 0.00 in0.0 mm 0.00 in0.0 mm 0.00 in0.0 mm
10:39 PM 69.3°F20.7°C 61.3°F16.3°C 76% Calm Calm 4.9 mph7.9 kmh 30.36 in1028.1 mb 0.00 in0.0 mm 0.00 in0.0 mm 0.00 in0.0 mm
10:54 PM 67.8°F19.9°C 56.1°F13.4°C 66% 0.7 mph S1.1 kmh S 7.6 mph12.2 kmh 30.36 in1028.1 mb 0.00 in0.0 mm 0.00 in0.0 mm 0.00 in0.0 mm
11:09 PM 66.9°F19.4°C 63.9°F17.7°C 90% Calm Calm 4.9 mph7.9 kmh 30.37 in1028.4 mb 0.00 in0.0 mm 0.00 in0.0 mm 0.00 in0.0 mm
11:24 PM 66.2°F19.0°C 63.9°F17.7°C 92% Calm Calm 2.5 mph4.0 kmh 30.36 in1028.1 mb 0.00 in0.0 mm 0.00 in0.0 mm 0.00 in0.0 mm
11:39 PM 64.9°F18.3°C 62.8°F17.1°C 93% Calm Calm -- 30.35 in1027.8 mb 0.00 in0.0 mm 0.00 in0.0 mm 0.00 in0.0 mm
11:54 PM 64.2°F17.9°C 62.4°F16.9°C 94% 0.9 mph SW1.4 kmh SW 2.5 mph4.0 kmh 30.35 in1027.8 mb 0.00 in0.0 mm 0.00 in0.0 mm 0.00 in0.0 mm